Time;durP1;ratioP1;P1;durP2;ratioP2;P2;SDS_P1;SDS_P2;PMS_P1;PMS_P2;Temp;Humidity;BMP_temperature;BMP_pressure;BME280_temperature;BME280_humidity;BME280_pressure;Samples;Min_cycle;Max_cycle;Signal;HPM_P1;HPM_P2
2022/09/03 00:00:07;;;;;;;0.70;0.70;;;9.90;99.90;;;;;;5035283;28;20025;-76
2022/09/03 00:02:44;;;;;;;0.75;0.60;;;10.00;99.90;;;;;;5018379;28;20038;-76
2022/09/03 00:05:35;;;;;;;3.13;1.23;;;10.00;99.90;;;;;;5036443;28;20367;-76
2022/09/03 00:08:45;;;;;;;1.95;0.70;;;10.10;99.90;;;;;;5036355;28;20029;-75
2022/09/03 00:11:20;;;;;;;0.73;0.60;;;10.20;99.90;;;;;;5003066;28;20038;-75
2022/09/03 00:14:18;;;;;;;2.38;1.10;;;10.20;99.90;;;;;;5036343;28;20044;-75
2022/09/03 00:16:58;;;;;;;4.75;1.42;;;10.20;99.90;;;;;;5030356;28;20041;-76
2022/09/03 00:19:33;;;;;;;1.77;0.90;;;10.20;99.90;;;;;;5035745;28;20128;-75
2022/09/03 00:22:10;;;;;;;2.05;1.17;;;10.30;99.90;;;;;;5035930;28;20075;-76
2022/09/03 00:24:41;;;;;;;1.95;0.85;;;10.30;99.90;;;;;;5035808;28;20107;-76
2022/09/03 00:27:18;;;;;;;2.95;0.95;;;10.40;99.90;;;;;;5036368;28;20056;-75
2022/09/03 00:30:09;;;;;;;1.67;0.93;;;10.40;99.90;;;;;;5036000;28;20021;-75
2022/09/03 00:32:47;;;;;;;2.90;0.93;;;10.50;99.90;;;;;;5036046;28;20022;-75
2022/09/03 00:35:37;;;;;;;1.67;0.73;;;10.50;99.90;;;;;;5035726;28;20103;-76
2022/09/03 00:38:06;;;;;;;2.03;0.80;;;10.60;99.90;;;;;;5010807;28;20120;-75
2022/09/03 00:40:53;;;;;;;0.98;0.63;;;10.60;99.90;;;;;;5035642;28;20041;-75
2022/09/03 00:43:31;;;;;;;2.85;0.50;;;10.70;99.90;;;;;;5035553;28;20087;-76
2022/09/03 00:46:11;;;;;;;2.72;0.50;;;10.70;99.90;;;;;;5035951;28;20068;-75
2022/09/03 00:49:13;;;;;;;2.42;0.77;;;10.70;99.90;;;;;;5035345;28;20421;-75
2022/09/03 00:52:02;;;;;;;4.90;1.27;;;10.80;99.90;;;;;;5035610;28;20022;-75
2022/09/03 00:54:48;;;;;;;3.83;0.82;;;10.80;99.90;;;;;;5035378;28;20055;-75
2022/09/03 00:57:16;;;;;;;9.10;2.08;;;10.90;99.90;;;;;;5035464;28;20026;-75
2022/09/03 00:59:59;;;;;;;3.92;1.00;;;10.90;99.90;;;;;;5035416;28;20105;-75
2022/09/03 01:02:47;;;;;;;4.53;1.02;;;10.90;99.90;;;;;;5035720;28;20037;-76
2022/09/03 01:05:33;;;;;;;6.35;1.48;;;11.00;99.90;;;;;;5035326;28;20367;-75
2022/09/03 01:08:19;;;;;;;6.45;1.33;;;11.10;99.90;;;;;;5035150;28;20083;-75
2022/09/03 01:11:17;;;;;;;3.47;1.33;;;11.20;99.90;;;;;;5034929;28;20375;-76
2022/09/03 01:13:56;;;;;;;5.70;1.23;;;11.20;99.90;;;;;;5035319;28;20025;-75
2022/09/03 01:16:55;;;;;;;4.68;1.90;;;11.20;99.90;;;;;;5016852;28;20054;-75
2022/09/03 01:19:34;;;;;;;5.13;1.17;;;11.30;99.90;;;;;;5035309;28;20454;-75
2022/09/03 01:22:14;;;;;;;4.97;1.58;;;11.30;99.90;;;;;;5034869;28;20029;-76
2022/09/03 01:25:12;;;;;;;5.45;1.40;;;11.30;99.90;;;;;;5034800;28;20017;-76
2022/09/03 01:28:24;;;;;;;7.20;1.60;;;11.30;99.90;;;;;;5035075;28;20096;-74
2022/09/03 01:31:36;;;;;;;12.25;1.77;;;11.30;99.90;;;;;;5011717;28;20044;-75
2022/09/03 01:34:13;;;;;;;8.70;1.23;;;11.40;99.90;;;;;;4974000;28;20068;-74
2022/09/03 01:37:25;;;;;;;7.95;2.45;;;11.40;99.90;;;;;;4973895;28;20034;-75
2022/09/03 01:40:02;;;;;;;5.85;1.83;;;11.50;99.90;;;;;;5025906;28;20120;-75
2022/09/03 01:42:58;;;;;;;6.82;1.77;;;11.50;99.90;;;;;;5034540;28;20057;-75
2022/09/03 01:45:43;;;;;;;8.05;1.13;;;11.50;99.90;;;;;;5034926;28;20052;-75
2022/09/03 01:48:26;;;;;;;5.50;1.33;;;11.60;99.90;;;;;;5034593;28;20021;-75
2022/09/03 01:51:06;;;;;;;6.55;1.45;;;11.60;99.90;;;;;;5034506;28;20030;-74
2022/09/03 01:54:00;;;;;;;10.63;1.52;;;11.60;99.90;;;;;;5034164;28;20022;-75
2022/09/03 01:56:49;;;;;;;8.10;2.00;;;11.50;99.90;;;;;;5016607;28;20044;-74
2022/09/03 01:59:31;;;;;;;6.75;1.30;;;11.50;99.90;;;;;;5034748;28;20026;-75
2022/09/03 02:02:11;;;;;;;13.15;1.83;;;11.40;99.90;;;;;;5033943;28;20017;-76
2022/09/03 02:04:39;;;;;;;8.07;2.05;;;11.40;99.90;;;;;;5034091;28;20022;-75
2022/09/03 02:07:07;;;;;;;11.73;1.35;;;11.40;99.90;;;;;;5033903;28;20022;-75
2022/09/03 02:09:34;;;;;;;9.73;1.50;;;11.40;99.90;;;;;;5034752;28;20025;-75
2022/09/03 02:12:33;;;;;;;10.98;2.15;;;11.40;99.90;;;;;;5033942;28;20021;-73
2022/09/03 02:15:06;;;;;;;11.13;2.03;;;11.30;99.90;;;;;;5021916;28;20033;-74
2022/09/03 02:17:34;;;;;;;7.53;2.50;;;11.30;99.90;;;;;;5033530;28;20053;-74
2022/09/03 02:20:10;;;;;;;20.58;3.08;;;11.30;99.90;;;;;;5033877;28;20025;-74
2022/09/03 02:22:39;;;;;;;18.58;2.35;;;11.30;99.90;;;;;;5033866;28;20037;-75
2022/09/03 02:25:09;;;;;;;8.00;2.03;;;11.30;99.90;;;;;;5033626;28;20026;-75
2022/09/03 02:27:39;;;;;;;9.43;1.63;;;11.30;99.90;;;;;;5033901;28;20057;-74
2022/09/03 02:30:07;;;;;;;15.93;2.63;;;11.30;99.90;;;;;;5033558;28;20025;-75
2022/09/03 02:32:35;;;;;;;15.45;2.15;;;11.30;99.90;;;;;;5033685;28;20045;-75
2022/09/03 02:35:03;;;;;;;14.10;2.70;;;11.30;99.90;;;;;;5033515;28;20025;-75
2022/09/03 02:37:31;;;;;;;11.10;2.08;;;11.30;99.90;;;;;;5033460;28;20108;-75
2022/09/03 02:39:58;;;;;;;12.50;1.83;;;11.20;99.90;;;;;;5033509;28;20104;-75
2022/09/03 02:42:26;;;;;;;9.50;2.50;;;11.30;99.90;;;;;;5033356;28;20039;-75
2022/09/03 02:45:35;;;;;;;7.53;2.05;;;11.30;99.90;;;;;;5015709;28;20372;-75
2022/09/03 02:48:03;;;;;;;12.43;2.15;;;11.30;99.90;;;;;;5031366;28;20064;-75
2022/09/03 02:50:30;;;;;;;11.82;2.40;;;11.30;99.90;;;;;;5033501;28;20014;-75
2022/09/03 02:52:59;;;;;;;9.57;2.03;;;11.30;99.90;;;;;;5033145;28;20029;-74
2022/09/03 02:55:27;;;;;;;6.32;1.83;;;11.40;99.90;;;;;;5033604;28;20043;-75
2022/09/03 02:57:56;;;;;;;9.10;2.25;;;11.40;99.90;;;;;;5033309;28;20079;-74
2022/09/03 03:00:29;;;;;;;13.57;1.85;;;11.40;99.90;;;;;;5033244;28;20428;-75
2022/09/03 03:02:57;;;;;;;8.95;1.48;;;11.40;99.90;;;;;;5033024;28;20099;-75
2022/09/03 03:05:45;;;;;;;11.95;2.25;;;11.50;99.90;;;;;;5015542;28;20486;-75
2022/09/03 03:08:20;;;;;;;4.80;1.20;;;11.50;99.90;;;;;;5033270;28;20096;-75
2022/09/03 03:10:52;;;;;;;10.93;1.70;;;11.50;99.90;;;;;;5033267;28;20025;-75
2022/09/03 03:13:20;;;;;;;12.13;1.95;;;11.50;99.90;;;;;;5035579;28;20033;-75
2022/09/03 03:15:48;;;;;;;21.58;2.25;;;11.50;99.90;;;;;;5036948;28;20439;-75
2022/09/03 03:18:16;;;;;;;9.10;1.85;;;11.60;99.90;;;;;;5037200;28;20490;-75
2022/09/03 03:20:44;;;;;;;7.93;1.95;;;11.60;99.90;;;;;;5019337;28;20509;-75
2022/09/03 03:23:12;;;;;;;13.20;2.05;;;11.70;99.90;;;;;;5037112;28;20034;-75
2022/09/03 03:25:40;;;;;;;3.85;1.25;;;11.80;99.90;;;;;;5037041;28;20021;-74
2022/09/03 03:28:08;;;;;;;10.43;1.50;;;11.70;99.90;;;;;;5037046;28;20355;-75
2022/09/03 03:30:41;;;;;;;6.78;1.65;;;11.70;99.90;;;;;;5037047;28;20025;-75
2022/09/03 03:33:11;;;;;;;6.45;1.05;;;11.80;99.90;;;;;;5036748;28;20033;-75
2022/09/03 03:35:41;;;;;;;6.30;1.05;;;11.70;99.90;;;;;;5036758;28;20078;-76
2022/09/03 03:38:09;;;;;;;6.78;1.27;;;11.80;99.90;;;;;;5036541;28;20485;-75
2022/09/03 03:40:38;;;;;;;5.53;1.48;;;11.90;99.90;;;;;;5036631;28;20026;-74
2022/09/03 03:43:06;;;;;;;4.00;1.17;;;12.00;99.90;;;;;;5018870;28;20082;-75
2022/09/03 03:45:34;;;;;;;8.80;2.15;;;12.10;99.90;;;;;;5036810;28;20021;-75
2022/09/03 03:48:02;;;;;;;2.63;0.77;;;12.30;99.90;;;;;;5036667;28;20200;-76
2022/09/03 03:50:29;;;;;;;2.20;0.55;;;12.40;99.90;;;;;;5036628;28;20025;-74
2022/09/03 03:53:00;;;;;;;5.95;0.95;;;12.60;99.90;;;;;;5036454;28;20036;-75
2022/09/03 03:55:28;;;;;;;4.40;0.55;;;12.70;99.90;;;;;;5018863;28;20033;-75
2022/09/03 03:57:58;;;;;;;14.20;1.40;;;12.70;99.90;;;;;;5036341;28;20021;-76
2022/09/03 04:00:25;;;;;;;3.97;1.23;;;12.70;99.90;;;;;;5036602;28;20029;-75
2022/09/03 04:02:53;;;;;;;9.02;2.08;;;12.80;99.90;;;;;;5036159;28;20171;-75
2022/09/03 04:05:21;;;;;;;7.53;1.90;;;12.80;99.90;;;;;;5036338;28;20018;-75
2022/09/03 04:07:48;;;;;;;9.63;1.50;;;12.70;99.90;;;;;;5036716;28;20525;-75
2022/09/03 04:10:16;;;;;;;10.23;1.48;;;12.70;99.90;;;;;;5036097;28;20362;-74
2022/09/03 04:12:44;;;;;;;8.30;1.05;;;12.70;99.90;;;;;;5036152;28;20095;-74
2022/09/03 04:15:11;;;;;;;14.88;1.55;;;12.60;99.90;;;;;;5035962;28;20083;-75
2022/09/03 04:17:39;;;;;;;3.38;0.80;;;12.60;99.90;;;;;;5035650;28;20057;-76
2022/09/03 04:20:07;;;;;;;6.35;1.58;;;12.50;99.90;;;;;;5035991;28;20544;-75
2022/09/03 04:22:35;;;;;;;3.25;1.02;;;12.30;99.90;;;;;;5035716;28;20029;-75
2022/09/03 04:25:02;;;;;;;4.85;1.17;;;11.90;99.90;;;;;;5035852;28;20022;-75
2022/09/03 04:27:30;;;;;;;3.30;0.98;;;11.60;99.90;;;;;;5035932;28;20025;-74
2022/09/03 04:29:58;;;;;;;3.05;1.10;;;11.30;99.90;;;;;;5035719;28;20386;-74
2022/09/03 04:35:12;;;;;;;2.03;0.50;;;10.90;99.90;;;;;;5036082;28;20087;-75
2022/09/03 04:37:40;;;;;;;3.42;0.88;;;10.80;99.90;;;;;;5035731;28;20025;-76
2022/09/03 04:40:08;;;;;;;5.20;0.88;;;10.70;99.90;;;;;;5035495;28;20036;-74
2022/09/03 04:42:36;;;;;;;3.17;1.02;;;10.70;99.90;;;;;;5035656;28;20036;-75
2022/09/03 04:45:04;;;;;;;3.95;1.00;;;10.70;99.90;;;;;;5035620;28;20049;-75
2022/09/03 04:47:32;;;;;;;8.60;1.08;;;10.80;99.90;;;;;;5035484;28;20390;-75
2022/09/03 04:50:00;;;;;;;4.63;1.25;;;10.80;99.90;;;;;;5035611;28;20063;-75
2022/09/03 04:52:30;;;;;;;5.30;1.02;;;10.80;99.90;;;;;;5035509;28;20083;-75
2022/09/03 04:54:58;;;;;;;10.02;0.98;;;10.80;99.90;;;;;;5035335;28;20469;-75
2022/09/03 04:57:33;;;;;;;7.57;1.45;;;10.90;99.90;;;;;;5017296;28;20021;-75
2022/09/03 05:00:00;;;;;;;9.80;1.67;;;10.90;99.90;;;;;;5035362;28;20021;-75
2022/09/03 05:02:28;;;;;;;8.45;1.98;;;10.90;99.90;;;;;;5035250;28;20107;-75
2022/09/03 05:04:56;;;;;;;14.85;2.13;;;10.90;99.90;;;;;;5035281;28;20021;-75
2022/09/03 05:07:25;;;;;;;10.07;2.42;;;11.00;99.90;;;;;;5035110;28;20050;-75
2022/09/03 05:09:53;;;;;;;11.52;2.42;;;11.00;99.90;;;;;;5035125;28;20056;-75
2022/09/03 05:12:22;;;;;;;3.58;1.10;;;10.90;99.90;;;;;;5034944;28;20033;-75
2022/09/03 05:14:49;;;;;;;5.95;2.13;;;11.00;99.90;;;;;;5034977;28;20049;-76
2022/09/03 05:17:17;;;;;;;6.57;1.75;;;11.00;99.90;;;;;;5034846;28;20186;-76
2022/09/03 05:19:45;;;;;;;10.75;2.15;;;11.00;99.90;;;;;;5035156;28;20018;-75
2022/09/03 05:22:14;;;;;;;9.80;2.45;;;11.00;99.90;;;;;;5034696;28;20029;-75
2022/09/03 05:24:42;;;;;;;8.95;1.45;;;11.10;99.90;;;;;;5034987;28;20022;-75
2022/09/03 05:27:10;;;;;;;11.60;2.58;;;11.10;99.90;;;;;;5034786;28;20466;-75
2022/09/03 05:29:38;;;;;;;10.65;2.72;;;11.10;99.90;;;;;;5034846;28;20478;-76
2022/09/03 05:32:06;;;;;;;9.27;1.75;;;11.10;99.90;;;;;;5034501;28;20421;-75
2022/09/03 05:34:33;;;;;;;6.55;2.03;;;11.10;99.90;;;;;;5033951;28;20013;-76
2022/09/03 05:37:01;;;;;;;12.82;1.83;;;11.10;99.90;;;;;;5034074;28;20041;-75
2022/09/03 05:39:29;;;;;;;9.73;1.77;;;11.20;99.90;;;;;;5034396;28;20013;-76
2022/09/03 05:41:56;;;;;;;9.02;2.28;;;11.20;99.90;;;;;;5034288;28;20079;-76
2022/09/03 05:44:24;;;;;;;6.75;1.60;;;11.20;99.90;;;;;;5034430;28;20037;-77
2022/09/03 05:46:52;;;;;;;7.10;1.92;;;11.10;99.90;;;;;;5034623;28;20013;-76
2022/09/03 05:49:20;;;;;;;8.52;2.13;;;11.10;99.90;;;;;;5034142;28;20079;-75
2022/09/03 05:51:47;;;;;;;8.15;1.55;;;11.10;99.90;;;;;;5034392;28;20119;-74
2022/09/03 05:54:15;;;;;;;14.30;1.60;;;11.00;99.90;;;;;;5016903;28;20378;-75
2022/09/03 05:56:43;;;;;;;9.30;1.70;;;11.00;99.90;;;;;;5034082;28;20026;-75
2022/09/03 05:59:12;;;;;;;6.18;1.55;;;11.00;99.90;;;;;;5034145;28;20121;-75
2022/09/03 06:01:43;;;;;;;6.88;1.70;;;11.10;99.90;;;;;;5034030;28;20053;-75
2022/09/03 06:04:13;;;;;;;6.93;1.20;;;11.00;99.90;;;;;;5034349;28;20060;-76
2022/09/03 06:06:43;;;;;;;8.70;1.33;;;11.00;99.90;;;;;;5016409;28;20067;-76
2022/09/03 06:09:14;;;;;;;8.52;2.30;;;11.10;99.90;;;;;;5034250;28;20497;-76
2022/09/03 06:11:43;;;;;;;8.50;2.40;;;11.00;99.90;;;;;;5033888;28;20029;-75
2022/09/03 06:14:13;;;;;;;7.82;1.75;;;11.10;99.90;;;;;;5016076;28;20116;-76
2022/09/03 06:16:44;;;;;;;11.73;2.28;;;11.10;99.90;;;;;;5015830;28;20047;-75
2022/09/03 06:19:13;;;;;;;16.45;2.25;;;11.10;99.90;;;;;;5033784;28;20537;-75
2022/09/03 06:21:43;;;;;;;8.93;1.88;;;11.10;99.90;;;;;;5033713;28;20033;-75
2022/09/03 06:24:13;;;;;;;10.60;1.85;;;11.10;99.90;;;;;;5033829;28;20033;-75
2022/09/03 06:26:41;;;;;;;9.15;3.20;;;11.20;99.90;;;;;;5033933;28;20051;-75
2022/09/03 06:29:09;;;;;;;11.85;1.92;;;11.20;99.90;;;;;;5033838;28;20025;-76
2022/09/03 06:31:37;;;;;;;9.57;1.83;;;11.30;99.90;;;;;;5015816;28;20045;-75
2022/09/03 06:34:04;;;;;;;4.35;1.50;;;11.30;99.90;;;;;;5033630;28;20053;-75
2022/09/03 06:36:32;;;;;;;12.25;2.65;;;11.40;99.90;;;;;;5033394;28;20112;-75
2022/09/03 06:39:00;;;;;;;8.43;2.40;;;11.40;99.90;;;;;;5033596;28;20453;-75
2022/09/03 06:41:31;;;;;;;6.25;1.55;;;11.50;99.90;;;;;;5033206;28;20030;-75
2022/09/03 06:44:02;;;;;;;7.53;1.67;;;11.50;99.90;;;;;;5033307;28;20033;-75
2022/09/03 06:46:31;;;;;;;13.98;1.83;;;11.60;99.90;;;;;;5033288;28;20359;-76
2022/09/03 06:49:00;;;;;;;3.33;0.85;;;11.60;99.90;;;;;;5033540;28;20021;-75
2022/09/03 06:51:29;;;;;;;7.25;1.30;;;11.60;99.90;;;;;;5033560;28;20463;-76
2022/09/03 06:54:03;;;;;;;9.40;1.75;;;11.60;99.90;;;;;;5033252;28;20394;-76
2022/09/03 06:56:31;;;;;;;6.40;1.35;;;11.60;99.90;;;;;;5033276;28;20098;-76
2022/09/03 06:59:03;;;;;;;7.03;1.08;;;11.60;99.90;;;;;;5015815;28;20402;-77
2022/09/03 07:01:33;;;;;;;7.45;1.63;;;11.60;99.90;;;;;;5033401;28;20025;-76
2022/09/03 07:04:04;;;;;;;6.55;1.27;;;11.70;99.90;;;;;;5015385;28;20058;-77
2022/09/03 07:06:37;;;;;;;9.88;1.60;;;11.70;99.90;;;;;;5033079;28;20482;-76
2022/09/03 07:09:06;;;;;;;5.97;1.23;;;11.70;99.90;;;;;;5033281;28;20083;-75
2022/09/03 07:11:35;;;;;;;5.32;1.58;;;11.70;99.90;;;;;;5033579;28;20029;-76
2022/09/03 07:14:04;;;;;;;6.18;1.58;;;11.70;99.90;;;;;;5033090;28;20047;-76
2022/09/03 07:16:36;;;;;;;8.25;1.40;;;11.70;99.90;;;;;;5033102;28;20548;-75
2022/09/03 07:19:05;;;;;;;12.25;2.53;;;11.70;99.90;;;;;;5033332;28;20103;-75
2022/09/03 07:21:40;;;;;;;11.63;1.83;;;11.70;99.90;;;;;;5033056;28;20036;-74
2022/09/03 07:24:08;;;;;;;7.53;1.63;;;11.70;99.90;;;;;;5033372;28;20452;-75
2022/09/03 07:26:43;;;;;;;11.85;1.55;;;11.80;99.90;;;;;;5033226;28;20466;-75
2022/09/03 07:29:11;;;;;;;6.55;1.80;;;11.80;99.90;;;;;;5033263;28;20034;-76
2022/09/03 07:31:40;;;;;;;10.30;1.98;;;11.80;99.90;;;;;;5048000;28;20025;-75
2022/09/03 07:34:11;;;;;;;10.93;1.92;;;11.80;99.90;;;;;;5052548;28;20389;-76
2022/09/03 07:36:41;;;;;;;8.35;1.58;;;11.80;99.90;;;;;;5049632;28;20482;-76
2022/09/03 07:39:13;;;;;;;8.82;1.65;;;11.80;99.90;;;;;;5048512;28;20482;-76
2022/09/03 07:41:44;;;;;;;7.93;1.25;;;11.90;99.90;;;;;;5049932;28;20028;-76
2022/09/03 07:44:18;;;;;;;6.78;2.20;;;11.90;99.90;;;;;;5050846;28;20017;-76
2022/09/03 07:46:46;;;;;;;8.40;1.50;;;11.80;99.90;;;;;;5050597;28;20017;-76
2022/09/03 07:49:13;;;;;;;5.05;1.40;;;11.80;99.90;;;;;;5049645;28;20434;-76
2022/09/03 07:51:41;;;;;;;7.22;1.83;;;11.80;99.90;;;;;;5050575;28;20017;-76
2022/09/03 07:54:10;;;;;;;7.68;2.22;;;11.70;99.90;;;;;;5031713;28;20033;-76
2022/09/03 07:56:39;;;;;;;11.38;1.63;;;11.60;99.90;;;;;;5050729;28;20021;-77
2022/09/03 07:59:07;;;;;;;11.90;1.98;;;11.60;99.90;;;;;;5050101;28;20032;-76
2022/09/03 08:01:36;;;;;;;4.28;1.60;;;11.70;99.90;;;;;;5052680;28;20086;-76
2022/09/03 08:04:05;;;;;;;9.85;1.63;;;11.70;99.90;;;;;;5050822;28;20028;-76
2022/09/03 08:06:33;;;;;;;10.30;1.20;;;11.60;99.90;;;;;;5052125;28;20056;-76
2022/09/03 08:09:03;;;;;;;8.30;1.90;;;11.60;99.90;;;;;;5053510;28;20071;-74
2022/09/03 08:11:31;;;;;;;6.85;1.17;;;11.60;99.90;;;;;;5054495;28;20032;-73
2022/09/03 08:14:01;;;;;;;6.63;1.42;;;11.60;99.90;;;;;;5051293;28;20099;-74
2022/09/03 08:16:31;;;;;;;8.45;1.88;;;11.60;99.90;;;;;;5051578;28;20064;-74
2022/09/03 08:18:58;;;;;;;7.68;1.25;;;11.60;99.90;;;;;;5051262;28;20378;-74
2022/09/03 08:21:27;;;;;;;6.57;1.67;;;11.60;99.90;;;;;;5051180;28;20497;-74
2022/09/03 08:24:02;;;;;;;4.93;1.10;;;11.60;99.90;;;;;;5053426;28;20056;-73
2022/09/03 08:26:35;;;;;;;4.77;1.53;;;11.50;99.90;;;;;;5052447;28;20130;-73
2022/09/03 08:29:03;;;;;;;6.43;1.60;;;11.50;99.90;;;;;;5051730;28;20284;-73
2022/09/03 08:31:31;;;;;;;12.27;1.55;;;11.50;99.90;;;;;;5050159;28;20123;-74
2022/09/03 08:34:05;;;;;;;6.97;1.95;;;11.50;99.90;;;;;;5052099;28;20106;-74
2022/09/03 08:36:35;;;;;;;5.32;1.63;;;11.50;99.90;;;;;;5052108;28;20131;-74
2022/09/03 08:39:08;;;;;;;9.10;1.75;;;11.50;99.90;;;;;;5054484;28;20025;-73
2022/09/03 08:42:02;;;;;;;7.72;1.00;;;11.60;99.90;;;;;;5049557;28;20029;-74
2022/09/03 08:44:54;;;;;;;5.43;1.30;;;11.70;99.90;;;;;;5052574;28;20025;-74
2022/09/03 08:47:43;;;;;;;12.80;1.15;;;11.70;99.90;;;;;;5052690;28;20470;-76
2022/09/03 08:50:30;;;;;;;3.97;1.05;;;11.80;99.90;;;;;;5047546;28;20112;-76
2022/09/03 08:53:21;;;;;;;2.17;0.95;;;11.60;99.90;;;;;;5051724;28;20044;-74
2022/09/03 08:56:10;;;;;;;1.95;1.15;;;11.30;99.90;;;;;;5052514;28;20031;-75
2022/09/03 08:58:42;;;;;;;4.35;1.15;;;11.20;99.90;;;;;;5051476;28;20048;-75
2022/09/03 09:01:39;;;;;;;1.13;0.90;;;11.00;99.90;;;;;;5050080;28;20397;-78
2022/09/03 09:04:21;;;;;;;4.60;0.93;;;10.90;99.90;;;;;;5050865;28;20040;-75
2022/09/03 09:07:00;;;;;;;2.53;0.70;;;10.70;99.90;;;;;;5052192;28;20389;-76
2022/09/03 09:10:00;;;;;;;9.20;1.20;;;10.60;99.90;;;;;;5051922;28;20033;-75
2022/09/03 09:12:49;;;;;;;3.50;0.68;;;10.60;99.90;;;;;;5050927;28;20017;-77
2022/09/03 09:15:49;;;;;;;4.57;1.08;;;10.50;99.90;;;;;;5048825;28;20430;-75
2022/09/03 09:18:40;;;;;;;3.25;1.00;;;10.50;99.90;;;;;;5049175;28;20030;-75
2022/09/03 09:21:27;;;;;;;5.57;1.58;;;10.50;99.90;;;;;;5051412;28;20025;-75
2022/09/03 09:23:58;;;;;;;3.42;1.23;;;10.50;99.90;;;;;;5051935;28;20025;-75
2022/09/03 09:26:27;;;;;;;3.08;1.10;;;10.50;99.90;;;;;;5052145;28;20492;-74
2022/09/03 09:29:10;;;;;;;4.70;1.35;;;10.40;99.90;;;;;;5051745;28;20017;-75
2022/09/03 09:31:39;;;;;;;3.60;1.55;;;10.40;99.90;;;;;;5052192;28;20020;-74
2022/09/03 09:34:08;;;;;;;5.82;1.75;;;10.40;99.90;;;;;;5048854;28;20109;-75
2022/09/03 09:36:55;;;;;;;6.00;1.65;;;10.40;99.90;;;;;;5050935;28;20096;-75
2022/09/03 09:39:23;;;;;;;7.35;1.75;;;10.40;99.90;;;;;;5050938;28;20021;-75
2022/09/03 09:42:08;;;;;;;7.28;2.08;;;10.50;99.90;;;;;;5046813;28;20070;-75
2022/09/03 09:44:41;;;;;;;5.10;1.70;;;10.50;99.90;;;;;;5049942;28;20029;-77
2022/09/03 09:47:21;;;;;;;3.58;1.50;;;10.50;99.90;;;;;;5049600;28;20024;-76
2022/09/03 09:50:02;;;;;;;5.65;1.60;;;10.50;99.90;;;;;;5050022;28;20370;-76
2022/09/03 09:52:31;;;;;;;5.43;1.88;;;10.50;99.90;;;;;;5049303;28;20025;-76
2022/09/03 09:55:17;;;;;;;6.18;1.50;;;10.40;99.90;;;;;;5050982;28;20017;-76
2022/09/03 09:57:43;;;;;;;;;;;10.40;99.90;;;;;;5050083;28;20021;-76
2022/09/03 10:00:15;;;;;;;8.63;1.92;;;10.40;99.90;;;;;;5051486;28;20368;-74
2022/09/03 10:02:55;;;;;;;11.88;1.80;;;10.40;99.90;;;;;;5048746;28;20116;-75
2022/09/03 10:05:29;;;;;;;5.13;1.80;;;10.40;99.90;;;;;;5051082;28;20084;-76
2022/09/03 10:08:03;;;;;;;7.90;2.65;;;10.30;99.90;;;;;;5049523;28;20028;-74
2022/09/03 10:10:36;;;;;;;3.67;1.52;;;10.30;99.90;;;;;;5049986;28;20035;-75
2022/09/03 10:13:08;;;;;;;9.65;1.85;;;10.30;99.90;;;;;;5047336;28;20541;-73
2022/09/03 10:15:46;;;;;;;6.63;1.33;;;10.30;99.90;;;;;;5047395;28;20037;-75
2022/09/03 10:18:35;;;;;;;4.40;2.03;;;10.30;99.90;;;;;;5048799;28;20118;-75
2022/09/03 10:21:20;;;;;;;5.25;2.22;;;10.30;99.90;;;;;;5047916;28;20021;-75
2022/09/03 10:23:49;;;;;;;6.07;2.20;;;10.30;99.90;;;;;;5050132;28;20513;-75
2022/09/03 10:26:28;;;;;;;18.15;4.35;;;10.30;99.90;;;;;;5048898;28;20021;-74
2022/09/03 10:28:59;;;;;;;16.75;2.80;;;10.20;99.90;;;;;;5051446;28;20492;-74
2022/09/03 10:31:32;;;;;;;8.35;3.05;;;10.20;99.90;;;;;;5050180;28;20382;-73
2022/09/03 10:34:18;;;;;;;5.40;2.03;;;10.10;99.90;;;;;;5051606;28;20074;-75
2022/09/03 10:37:14;;;;;;;10.45;2.70;;;10.10;99.90;;;;;;5049426;28;20540;-74
2022/09/03 10:39:50;;;;;;;11.57;3.08;;;10.10;99.90;;;;;;5018984;28;20036;-73
2022/09/03 10:42:48;;;;;;;8.38;2.78;;;10.00;99.90;;;;;;5050486;28;20035;-73
2022/09/03 10:45:40;;;;;;;11.75;2.35;;;10.00;99.90;;;;;;5017609;28;20029;-75
2022/09/03 10:48:23;;;;;;;7.28;2.53;;;10.00;99.90;;;;;;5051040;28;20032;-75
2022/09/03 10:51:10;;;;;;;8.32;3.05;;;10.00;99.90;;;;;;5051426;28;20028;-75
2022/09/03 10:54:23;;;;;;;18.27;2.63;;;10.00;99.90;;;;;;5049413;28;20018;-75
2022/09/03 10:57:25;;;;;;;6.45;2.95;;;10.00;99.90;;;;;;5048071;28;20021;-76
2022/09/03 10:59:58;;;;;;;3.33;1.65;;;9.90;99.90;;;;;;5032221;28;20485;-75
2022/09/03 11:02:25;;;;;;;6.85;2.42;;;9.80;99.90;;;;;;5050475;28;20504;-74
2022/09/03 11:05:07;;;;;;;8.43;3.25;;;9.80;99.90;;;;;;5051118;28;20052;-74
2022/09/03 11:08:10;;;;;;;5.80;2.65;;;9.80;99.90;;;;;;5051629;28;20444;-74
2022/09/03 11:10:53;;;;;;;9.48;3.30;;;9.80;99.90;;;;;;5046079;28;20065;-76
2022/09/03 11:13:49;;;;;;;12.77;2.25;;;9.80;99.90;;;;;;5048946;28;20020;-75
2022/09/03 11:16:44;;;;;;;7.43;2.40;;;9.70;99.90;;;;;;5048662;28;20151;-75
2022/09/03 11:19:16;;;;;;;6.50;2.33;;;9.60;99.90;;;;;;5049965;28;20024;-75
2022/09/03 11:21:45;;;;;;;4.55;2.03;;;9.60;99.90;;;;;;5050970;28;20013;-73
2022/09/03 11:24:22;;;;;;;4.30;1.80;;;9.60;99.90;;;;;;5050748;28;20052;-74
2022/09/03 11:27:00;;;;;;;6.95;2.03;;;9.60;99.90;;;;;;5031052;28;20013;-75
2022/09/03 11:30:13;;;;;;;5.88;1.75;;;9.60;99.90;;;;;;5047548;28;20013;-73
2022/09/03 11:32:45;;;;;;;7.63;2.05;;;9.50;99.90;;;;;;5013514;28;20564;-75
2022/09/03 11:35:37;;;;;;;6.15;1.55;;;9.50;99.90;;;;;;5054396;28;20485;-74
2022/09/03 11:38:18;;;;;;;4.25;1.45;;;9.50;99.90;;;;;;5053906;28;20028;-74
2022/09/03 11:40:57;;;;;;;6.63;1.92;;;9.40;99.90;;;;;;5053183;28;20014;-75
2022/09/03 11:43:26;;;;;;;8.13;1.85;;;9.40;99.90;;;;;;5052477;28;20040;-74
2022/09/03 11:46:15;;;;;;;7.07;2.22;;;9.40;99.90;;;;;;5053566;28;20021;-74
2022/09/03 11:48:46;;;;;;;10.77;2.72;;;9.40;99.90;;;;;;5052530;28;20074;-75
2022/09/03 11:51:30;;;;;;;5.80;2.10;;;9.30;99.90;;;;;;5051288;28;20128;-75
2022/09/03 11:54:22;;;;;;;4.15;2.33;;;9.30;99.90;;;;;;5051789;28;20021;-75
2022/09/03 11:56:50;;;;;;;12.10;3.05;;;9.30;99.90;;;;;;5044798;28;20035;-75
2022/09/03 11:59:25;;;;;;;3.97;1.52;;;9.30;99.90;;;;;;5050817;28;20037;-75
2022/09/03 12:02:02;;;;;;;7.78;2.55;;;9.30;99.90;;;;;;5053751;28;20174;-73
2022/09/03 12:05:05;;;;;;;3.42;1.52;;;9.20;99.90;;;;;;5053498;28;20489;-74
2022/09/03 12:07:39;;;;;;;6.72;1.67;;;9.20;99.90;;;;;;5052397;28;20066;-75
2022/09/03 12:10:25;;;;;;;5.15;1.40;;;9.10;99.90;;;;;;5052925;28;20501;-73
2022/09/03 12:13:10;;;;;;;6.90;2.08;;;9.10;99.90;;;;;;5053062;28;20048;-75
2022/09/03 12:16:04;;;;;;;5.93;1.92;;;9.10;99.90;;;;;;5035989;28;20033;-74
2022/09/03 12:18:34;;;;;;;5.72;1.83;;;9.10;99.90;;;;;;5023942;28;20045;-74
2022/09/03 12:21:05;;;;;;;10.40;3.25;;;9.10;99.90;;;;;;5053929;28;20013;-75
2022/09/03 12:23:55;;;;;;;6.00;2.05;;;9.10;99.90;;;;;;5051039;28;20116;-75
2022/09/03 12:26:27;;;;;;;3.05;1.90;;;9.10;99.90;;;;;;5039342;28;20397;-74
2022/09/03 12:28:57;;;;;;;5.75;2.55;;;9.10;99.90;;;;;;5053088;28;20095;-73
2022/09/03 12:31:30;;;;;;;11.40;2.30;;;9.10;99.90;;;;;;5052872;28;20558;-74
2022/09/03 12:34:03;;;;;;;7.10;1.98;;;9.20;99.90;;;;;;5019222;28;20030;-75
2022/09/03 12:36:37;;;;;;;7.28;2.42;;;9.20;99.90;;;;;;5053303;28;20038;-74
2022/09/03 12:39:16;;;;;;;7.95;2.30;;;9.20;99.90;;;;;;5052813;28;20481;-75
2022/09/03 12:42:10;;;;;;;5.07;2.20;;;9.30;99.90;;;;;;5049190;28;20030;-75
2022/09/03 12:44:41;;;;;;;5.05;1.92;;;9.40;99.90;;;;;;5052237;28;20036;-74
2022/09/03 12:47:17;;;;;;;3.08;1.58;;;9.40;99.90;;;;;;5052914;28;20063;-75
2022/09/03 12:49:46;;;;;;;11.98;2.17;;;9.40;99.90;;;;;;5053357;28;20067;-75
2022/09/03 12:52:36;;;;;;;7.18;2.13;;;9.40;99.90;;;;;;5052860;28;20025;-75
2022/09/03 12:55:40;;;;;;;5.63;2.05;;;9.40;99.90;;;;;;5051205;28;20519;-74
2022/09/03 12:58:16;;;;;;;6.05;1.73;;;9.40;99.90;;;;;;5051445;28;20040;-74
2022/09/03 13:00:48;;;;;;;7.20;2.58;;;9.50;99.90;;;;;;5050001;28;20478;-75
2022/09/03 13:03:19;;;;;;;3.20;1.70;;;9.50;99.90;;;;;;5050964;28;20068;-73
2022/09/03 13:05:53;;;;;;;6.88;2.08;;;9.50;99.90;;;;;;5052533;28;20311;-74
2022/09/03 13:08:31;;;;;;;8.70;2.10;;;9.50;99.90;;;;;;5053477;28;20086;-75
2022/09/03 13:11:03;;;;;;;6.07;1.88;;;9.50;99.90;;;;;;5051415;28;20064;-74
2022/09/03 13:13:39;;;;;;;6.03;2.55;;;9.50;99.90;;;;;;5051036;28;20021;-75
2022/09/03 13:16:09;;;;;;;3.00;1.42;;;9.40;99.90;;;;;;5040301;28;20046;-75
2022/09/03 13:18:45;;;;;;;7.40;2.15;;;9.40;99.90;;;;;;5044063;28;20155;-74
2022/09/03 13:21:40;;;;;;;6.47;2.17;;;9.40;99.90;;;;;;5046775;28;20470;-73
2022/09/03 13:24:29;;;;;;;5.10;1.63;;;9.50;99.90;;;;;;5045712;28;20489;-75
2022/09/03 13:27:04;;;;;;;9.00;1.80;;;9.50;99.90;;;;;;5042305;28;20025;-74
2022/09/03 13:29:42;;;;;;;;;;;9.50;99.90;;;;;;5050859;28;20048;-75
2022/09/03 13:32:16;;;;;;;3.28;1.40;;;9.50;99.90;;;;;;5049984;28;19970;-75
2022/09/03 13:34:59;;;;;;;2.85;1.35;;;9.50;99.90;;;;;;5050695;28;20013;-75